sensor_id;sensor_type;location;lat;lon;timestamp;temperature;humidity
44729;DHT22;30457;53.590;9.922;2023-06-24T00:03:23;22.20;50.00
44729;DHT22;30457;53.590;9.922;2023-06-24T00:07:49;22.10;50.20
44729;DHT22;30457;53.590;9.922;2023-06-24T00:12:14;22.10;50.40
44729;DHT22;30457;53.590;9.922;2023-06-24T00:16:44;22.00;50.40
44729;DHT22;30457;53.590;9.922;2023-06-24T00:21:09;22.00;50.70
44729;DHT22;30457;53.590;9.922;2023-06-24T00:25:35;22.00;50.60
44729;DHT22;30457;53.590;9.922;2023-06-24T00:30:01;21.90;50.60
44729;DHT22;30457;53.590;9.922;2023-06-24T00:34:26;21.90;50.60
44729;DHT22;30457;53.590;9.922;2023-06-24T00:38:52;21.90;50.90
44729;DHT22;30457;53.590;9.922;2023-06-24T00:43:18;21.80;50.80
44729;DHT22;30457;53.590;9.922;2023-06-24T00:47:45;21.80;50.90
44729;DHT22;30457;53.590;9.922;2023-06-24T00:52:11;21.70;50.80
44729;DHT22;30457;53.590;9.922;2023-06-24T00:56:41;21.60;50.90
44729;DHT22;30457;53.590;9.922;2023-06-24T01:01:08;21.60;50.90
44729;DHT22;30457;53.590;9.922;2023-06-24T01:05:34;21.60;51.20
44729;DHT22;30457;53.590;9.922;2023-06-24T01:10:02;21.50;51.30
44729;DHT22;30457;53.590;9.922;2023-06-24T01:14:31;21.50;51.50
44729;DHT22;30457;53.590;9.922;2023-06-24T01:19:01;21.40;51.50
44729;DHT22;30457;53.590;9.922;2023-06-24T01:28:52;21.40;52.00
44729;DHT22;30457;53.590;9.922;2023-06-24T01:33:38;21.30;51.60
44729;DHT22;30457;53.590;9.922;2023-06-24T01:38:10;21.30;52.10
44729;DHT22;30457;53.590;9.922;2023-06-24T01:42:44;21.30;52.10
44729;DHT22;30457;53.590;9.922;2023-06-24T01:47:10;21.20;51.80
44729;DHT22;30457;53.590;9.922;2023-06-24T01:51:38;21.20;51.70
44729;DHT22;30457;53.590;9.922;2023-06-24T01:56:07;21.10;51.60
44729;DHT22;30457;53.590;9.922;2023-06-24T02:00:35;21.10;51.60
44729;DHT22;30457;53.590;9.922;2023-06-24T02:05:02;21.10;51.90
44729;DHT22;30457;53.590;9.922;2023-06-24T02:09:29;21.00;51.70
44729;DHT22;30457;53.590;9.922;2023-06-24T02:13:59;21.00;51.60
44729;DHT22;30457;53.590;9.922;2023-06-24T02:18:27;20.90;51.90
44729;DHT22;30457;53.590;9.922;2023-06-24T02:22:53;20.90;51.70
44729;DHT22;30457;53.590;9.922;2023-06-24T02:27:21;20.80;51.70
44729;DHT22;30457;53.590;9.922;2023-06-24T02:31:47;20.80;51.60
44729;DHT22;30457;53.590;9.922;2023-06-24T02:36:13;20.70;51.70
44729;DHT22;30457;53.590;9.922;2023-06-24T02:40:39;20.70;51.80
44729;DHT22;30457;53.590;9.922;2023-06-24T02:45:05;20.60;51.60
44729;DHT22;30457;53.590;9.922;2023-06-24T02:49:32;20.60;51.90
44729;DHT22;30457;53.590;9.922;2023-06-24T02:53:57;20.60;52.00
44729;DHT22;30457;53.590;9.922;2023-06-24T02:58:38;20.50;51.90
44729;DHT22;30457;53.590;9.922;2023-06-24T03:03:09;20.50;52.10
44729;DHT22;30457;53.590;9.922;2023-06-24T03:07:38;20.40;52.00
44729;DHT22;30457;53.590;9.922;2023-06-24T03:12:06;20.40;52.00
44729;DHT22;30457;53.590;9.922;2023-06-24T03:16:39;20.30;52.10
44729;DHT22;30457;53.590;9.922;2023-06-24T03:21:10;20.30;52.30
44729;DHT22;30457;53.590;9.922;2023-06-24T03:25:38;20.30;52.40
44729;DHT22;30457;53.590;9.922;2023-06-24T03:30:03;20.30;52.60
44729;DHT22;30457;53.590;9.922;2023-06-24T03:34:32;20.30;52.60
44729;DHT22;30457;53.590;9.922;2023-06-24T03:38:58;20.30;52.80
44729;DHT22;30457;53.590;9.922;2023-06-24T03:43:24;20.30;52.80
44729;DHT22;30457;53.590;9.922;2023-06-24T03:47:49;20.30;53.00
44729;DHT22;30457;53.590;9.922;2023-06-24T03:52:16;20.30;53.10
44729;DHT22;30457;53.590;9.922;2023-06-24T03:56:43;20.30;53.40
44729;DHT22;30457;53.590;9.922;2023-06-24T04:01:09;20.30;53.60
44729;DHT22;30457;53.590;9.922;2023-06-24T04:05:34;20.30;53.90
44729;DHT22;30457;53.590;9.922;2023-06-24T04:10:00;20.30;54.00
44729;DHT22;30457;53.590;9.922;2023-06-24T04:14:26;20.40;54.40
44729;DHT22;30457;53.590;9.922;2023-06-24T04:18:52;20.50;54.60
44729;DHT22;30457;53.590;9.922;2023-06-24T04:23:17;20.50;54.70
44729;DHT22;30457;53.590;9.922;2023-06-24T04:27:43;20.60;54.90
44729;DHT22;30457;53.590;9.922;2023-06-24T04:32:09;20.70;55.00
44729;DHT22;30457;53.590;9.922;2023-06-24T04:36:35;20.80;55.20
44729;DHT22;30457;53.590;9.922;2023-06-24T04:41:01;20.90;55.40
44729;DHT22;30457;53.590;9.922;2023-06-24T04:45:27;21.00;55.30
44729;DHT22;30457;53.590;9.922;2023-06-24T04:49:53;21.10;55.30
44729;DHT22;30457;53.590;9.922;2023-06-24T04:54:18;21.20;55.20
44729;DHT22;30457;53.590;9.922;2023-06-24T04:58:44;21.30;55.30
44729;DHT22;30457;53.590;9.922;2023-06-24T05:03:10;21.40;55.10
44729;DHT22;30457;53.590;9.922;2023-06-24T05:07:35;21.60;54.90
44729;DHT22;30457;53.590;9.922;2023-06-24T05:12:01;21.70;54.90
44729;DHT22;30457;53.590;9.922;2023-06-24T05:16:26;21.80;54.80
44729;DHT22;30457;53.590;9.922;2023-06-24T05:20:52;21.90;54.80
44729;DHT22;30457;53.590;9.922;2023-06-24T05:25:18;22.10;54.40
44729;DHT22;30457;53.590;9.922;2023-06-24T05:29:43;22.30;54.00
44729;DHT22;30457;53.590;9.922;2023-06-24T05:34:09;22.40;53.50
44729;DHT22;30457;53.590;9.922;2023-06-24T05:38:35;22.50;53.50
44729;DHT22;30457;53.590;9.922;2023-06-24T05:43:00;22.60;53.40
44729;DHT22;30457;53.590;9.922;2023-06-24T05:47:26;22.70;53.30
44729;DHT22;30457;53.590;9.922;2023-06-24T05:51:51;22.80;53.40
44729;DHT22;30457;53.590;9.922;2023-06-24T05:56:17;23.00;52.80
44729;DHT22;30457;53.590;9.922;2023-06-24T06:00:43;23.10;52.70
44729;DHT22;30457;53.590;9.922;2023-06-24T06:05:09;23.20;52.50
44729;DHT22;30457;53.590;9.922;2023-06-24T06:09:34;23.30;52.60
44729;DHT22;30457;53.590;9.922;2023-06-24T06:14:00;23.50;52.50
44729;DHT22;30457;53.590;9.922;2023-06-24T06:18:26;23.60;51.90
44729;DHT22;30457;53.590;9.922;2023-06-24T06:22:51;23.70;51.40
44729;DHT22;30457;53.590;9.922;2023-06-24T06:27:17;23.90;51.30
44729;DHT22;30457;53.590;9.922;2023-06-24T06:31:42;24.00;51.00
44729;DHT22;30457;53.590;9.922;2023-06-24T06:36:08;24.10;50.70
44729;DHT22;30457;53.590;9.922;2023-06-24T06:40:33;24.20;50.20
44729;DHT22;30457;53.590;9.922;2023-06-24T06:45:00;24.40;50.10
44729;DHT22;30457;53.590;9.922;2023-06-24T06:49:26;24.50;50.00
44729;DHT22;30457;53.590;9.922;2023-06-24T06:53:51;24.70;49.80
44729;DHT22;30457;53.590;9.922;2023-06-24T06:58:17;24.80;49.50
44729;DHT22;30457;53.590;9.922;2023-06-24T07:02:42;24.90;49.30
44729;DHT22;30457;53.590;9.922;2023-06-24T07:07:08;25.00;48.80
44729;DHT22;30457;53.590;9.922;2023-06-24T07:11:34;25.10;47.80
44729;DHT22;30457;53.590;9.922;2023-06-24T07:15:59;25.20;48.30
44729;DHT22;30457;53.590;9.922;2023-06-24T07:20:25;25.30;48.30
44729;DHT22;30457;53.590;9.922;2023-06-24T07:24:50;25.50;48.50
44729;DHT22;30457;53.590;9.922;2023-06-24T07:29:16;25.60;47.30
44729;DHT22;30457;53.590;9.922;2023-06-24T07:33:42;25.80;47.10
44729;DHT22;30457;53.590;9.922;2023-06-24T07:38:07;25.90;46.50
44729;DHT22;30457;53.590;9.922;2023-06-24T07:42:33;26.00;46.40
44729;DHT22;30457;53.590;9.922;2023-06-24T07:46:58;26.10;45.60
44729;DHT22;30457;53.590;9.922;2023-06-24T07:51:24;26.30;46.30
44729;DHT22;30457;53.590;9.922;2023-06-24T07:55:49;26.50;46.40
44729;DHT22;30457;53.590;9.922;2023-06-24T08:00:15;26.80;46.30
44729;DHT22;30457;53.590;9.922;2023-06-24T08:04:42;27.00;44.70
44729;DHT22;30457;53.590;9.922;2023-06-24T08:09:08;27.20;43.90
44729;DHT22;30457;53.590;9.922;2023-06-24T08:13:33;27.30;44.20
44729;DHT22;30457;53.590;9.922;2023-06-24T08:17:59;27.40;44.50
44729;DHT22;30457;53.590;9.922;2023-06-24T08:22:25;27.50;43.70
44729;DHT22;30457;53.590;9.922;2023-06-24T08:26:50;27.60;44.00
44729;DHT22;30457;53.590;9.922;2023-06-24T08:31:16;27.70;44.10
44729;DHT22;30457;53.590;9.922;2023-06-24T08:35:41;27.90;43.80
44729;DHT22;30457;53.590;9.922;2023-06-24T08:40:07;28.00;43.70
44729;DHT22;30457;53.590;9.922;2023-06-24T08:44:34;28.10;43.10
44729;DHT22;30457;53.590;9.922;2023-06-24T08:49:06;28.20;42.60
44729;DHT22;30457;53.590;9.922;2023-06-24T08:53:35;28.30;43.00
44729;DHT22;30457;53.590;9.922;2023-06-24T08:58:03;28.40;42.10
44729;DHT22;30457;53.590;9.922;2023-06-24T09:02:30;28.50;41.70
44729;DHT22;30457;53.590;9.922;2023-06-24T09:06:56;28.60;42.00
44729;DHT22;30457;53.590;9.922;2023-06-24T09:11:23;28.70;41.80
44729;DHT22;30457;53.590;9.922;2023-06-24T09:15:49;28.90;41.40
44729;DHT22;30457;53.590;9.922;2023-06-24T09:20:14;29.00;41.20
44729;DHT22;30457;53.590;9.922;2023-06-24T09:24:46;29.10;40.30
44729;DHT22;30457;53.590;9.922;2023-06-24T09:29:13;29.20;40.40
44729;DHT22;30457;53.590;9.922;2023-06-24T09:33:40;29.30;40.30
44729;DHT22;30457;53.590;9.922;2023-06-24T09:38:05;29.30;40.10
44729;DHT22;30457;53.590;9.922;2023-06-24T09:42:31;29.40;40.10
44729;DHT22;30457;53.590;9.922;2023-06-24T09:46:57;29.60;40.40
44729;DHT22;30457;53.590;9.922;2023-06-24T09:51:23;29.70;40.00
44729;DHT22;30457;53.590;9.922;2023-06-24T09:55:50;29.90;40.40
44729;DHT22;30457;53.590;9.922;2023-06-24T10:00:19;30.10;39.60
44729;DHT22;30457;53.590;9.922;2023-06-24T10:04:45;30.30;39.20
44729;DHT22;30457;53.590;9.922;2023-06-24T10:09:12;30.50;39.90
44729;DHT22;30457;53.590;9.922;2023-06-24T10:13:42;30.60;39.20
44729;DHT22;30457;53.590;9.922;2023-06-24T10:18:33;30.80;39.10
44729;DHT22;30457;53.590;9.922;2023-06-24T10:23:06;30.80;38.10
44729;DHT22;30457;53.590;9.922;2023-06-24T10:27:38;31.00;38.00
44729;DHT22;30457;53.590;9.922;2023-06-24T10:32:05;31.10;36.90
44729;DHT22;30457;53.590;9.922;2023-06-24T10:36:32;31.20;38.40
44729;DHT22;30457;53.590;9.922;2023-06-24T10:40:57;31.30;38.20
44729;DHT22;30457;53.590;9.922;2023-06-24T10:45:23;31.40;37.90
44729;DHT22;30457;53.590;9.922;2023-06-24T10:49:49;31.60;37.70
44729;DHT22;30457;53.590;9.922;2023-06-24T10:54:15;31.80;37.20
44729;DHT22;30457;53.590;9.922;2023-06-24T10:58:40;31.90;36.60
44729;DHT22;30457;53.590;9.922;2023-06-24T11:03:16;32.00;36.30
44729;DHT22;30457;53.590;9.922;2023-06-24T11:07:43;32.00;35.80
44729;DHT22;30457;53.590;9.922;2023-06-24T11:12:09;32.20;36.10
44729;DHT22;30457;53.590;9.922;2023-06-24T11:16:35;32.30;36.60
44729;DHT22;30457;53.590;9.922;2023-06-24T11:21:04;32.40;36.80
44729;DHT22;30457;53.590;9.922;2023-06-24T11:25:41;32.60;35.80
44729;DHT22;30457;53.590;9.922;2023-06-24T11:30:07;32.70;34.60
44729;DHT22;30457;53.590;9.922;2023-06-24T11:34:33;32.80;35.10
44729;DHT22;30457;53.590;9.922;2023-06-24T11:38:58;32.80;35.00
44729;DHT22;30457;53.590;9.922;2023-06-24T11:43:25;32.80;35.60
44729;DHT22;30457;53.590;9.922;2023-06-24T11:47:51;32.90;35.40
44729;DHT22;30457;53.590;9.922;2023-06-24T11:52:18;33.10;34.60
44729;DHT22;30457;53.590;9.922;2023-06-24T11:56:49;33.10;34.50
44729;DHT22;30457;53.590;9.922;2023-06-24T12:01:14;33.20;34.00
44729;DHT22;30457;53.590;9.922;2023-06-24T12:05:40;33.20;33.80
44729;DHT22;30457;53.590;9.922;2023-06-24T12:10:10;33.20;33.80
44729;DHT22;30457;53.590;9.922;2023-06-24T12:14:35;33.20;34.00
44729;DHT22;30457;53.590;9.922;2023-06-24T12:19:02;33.10;34.10
44729;DHT22;30457;53.590;9.922;2023-06-24T12:23:27;33.00;33.00
44729;DHT22;30457;53.590;9.922;2023-06-24T12:27:53;32.90;33.80
44729;DHT22;30457;53.590;9.922;2023-06-24T12:32:19;32.90;33.70
44729;DHT22;30457;53.590;9.922;2023-06-24T12:36:44;32.80;33.40
44729;DHT22;30457;53.590;9.922;2023-06-24T12:41:10;32.70;33.50
44729;DHT22;30457;53.590;9.922;2023-06-24T12:45:36;32.70;33.80
44729;DHT22;30457;53.590;9.922;2023-06-24T12:50:02;32.70;34.20
44729;DHT22;30457;53.590;9.922;2023-06-24T12:54:31;32.70;33.50
44729;DHT22;30457;53.590;9.922;2023-06-24T12:58:57;32.70;33.60
44729;DHT22;30457;53.590;9.922;2023-06-24T13:03:22;32.70;33.90
44729;DHT22;30457;53.590;9.922;2023-06-24T13:07:48;32.60;33.20
44729;DHT22;30457;53.590;9.922;2023-06-24T13:12:14;32.60;33.50
44729;DHT22;30457;53.590;9.922;2023-06-24T13:16:39;32.60;34.30
44729;DHT22;30457;53.590;9.922;2023-06-24T13:21:05;32.50;32.90
44729;DHT22;30457;53.590;9.922;2023-06-24T13:25:32;32.50;34.40
44729;DHT22;30457;53.590;9.922;2023-06-24T13:29:58;32.60;35.30
44729;DHT22;30457;53.590;9.922;2023-06-24T13:34:23;32.60;33.80
44729;DHT22;30457;53.590;9.922;2023-06-24T13:38:49;32.70;33.20
44729;DHT22;30457;53.590;9.922;2023-06-24T13:43:14;32.70;33.70
44729;DHT22;30457;53.590;9.922;2023-06-24T13:47:40;32.80;34.20
44729;DHT22;30457;53.590;9.922;2023-06-24T13:52:06;32.80;33.90
44729;DHT22;30457;53.590;9.922;2023-06-24T13:56:31;33.00;33.70
44729;DHT22;30457;53.590;9.922;2023-06-24T14:00:57;33.00;33.70
44729;DHT22;30457;53.590;9.922;2023-06-24T14:05:23;33.00;33.50
44729;DHT22;30457;53.590;9.922;2023-06-24T14:09:48;33.00;33.60
44729;DHT22;30457;53.590;9.922;2023-06-24T14:14:14;33.10;33.30
44729;DHT22;30457;53.590;9.922;2023-06-24T14:18:39;33.10;33.50
44729;DHT22;30457;53.590;9.922;2023-06-24T14:23:05;33.10;33.30
44729;DHT22;30457;53.590;9.922;2023-06-24T14:27:31;33.20;32.90
44729;DHT22;30457;53.590;9.922;2023-06-24T14:31:56;33.30;33.80
44729;DHT22;30457;53.590;9.922;2023-06-24T14:36:22;33.40;34.00
44729;DHT22;30457;53.590;9.922;2023-06-24T14:40:47;33.60;33.30
44729;DHT22;30457;53.590;9.922;2023-06-24T14:45:13;33.80;32.90
44729;DHT22;30457;53.590;9.922;2023-06-24T14:49:39;33.80;32.00
44729;DHT22;30457;53.590;9.922;2023-06-24T14:54:04;33.80;32.50
44729;DHT22;30457;53.590;9.922;2023-06-24T14:58:30;33.70;31.80
44729;DHT22;30457;53.590;9.922;2023-06-24T15:02:56;33.80;32.00
44729;DHT22;30457;53.590;9.922;2023-06-24T15:07:21;33.70;31.70
44729;DHT22;30457;53.590;9.922;2023-06-24T15:11:47;33.60;32.30
44729;DHT22;30457;53.590;9.922;2023-06-24T15:16:12;33.60;32.40
44729;DHT22;30457;53.590;9.922;2023-06-24T15:20:38;33.60;32.20
44729;DHT22;30457;53.590;9.922;2023-06-24T15:25:04;33.50;31.50
44729;DHT22;30457;53.590;9.922;2023-06-24T15:29:30;33.40;31.60
44729;DHT22;30457;53.590;9.922;2023-06-24T15:33:56;33.30;31.90
44729;DHT22;30457;53.590;9.922;2023-06-24T15:38:21;33.20;32.10
44729;DHT22;30457;53.590;9.922;2023-06-24T15:42:47;33.10;32.70
44729;DHT22;30457;53.590;9.922;2023-06-24T15:47:12;33.10;32.50
44729;DHT22;30457;53.590;9.922;2023-06-24T15:51:38;33.10;32.30
44729;DHT22;30457;53.590;9.922;2023-06-24T15:56:03;33.10;32.50
44729;DHT22;30457;53.590;9.922;2023-06-24T16:00:29;33.10;33.20
44729;DHT22;30457;53.590;9.922;2023-06-24T16:04:55;33.20;32.30
44729;DHT22;30457;53.590;9.922;2023-06-24T16:09:20;33.20;32.90
44729;DHT22;30457;53.590;9.922;2023-06-24T16:13:46;33.20;32.80
44729;DHT22;30457;53.590;9.922;2023-06-24T16:18:11;33.20;32.70
44729;DHT22;30457;53.590;9.922;2023-06-24T16:22:38;33.10;32.30
44729;DHT22;30457;53.590;9.922;2023-06-24T16:27:04;33.10;32.60
44729;DHT22;30457;53.590;9.922;2023-06-24T16:31:30;33.00;32.70
44729;DHT22;30457;53.590;9.922;2023-06-24T16:35:55;32.90;32.60
44729;DHT22;30457;53.590;9.922;2023-06-24T16:40:21;32.80;33.50
44729;DHT22;30457;53.590;9.922;2023-06-24T16:44:47;32.70;33.00
44729;DHT22;30457;53.590;9.922;2023-06-24T16:49:12;32.60;33.10
44729;DHT22;30457;53.590;9.922;2023-06-24T16:53:38;32.50;33.40
44729;DHT22;30457;53.590;9.922;2023-06-24T16:58:03;32.50;33.40
44729;DHT22;30457;53.590;9.922;2023-06-24T17:02:29;32.40;33.20
44729;DHT22;30457;53.590;9.922;2023-06-24T17:06:57;32.30;33.40
44729;DHT22;30457;53.590;9.922;2023-06-24T17:11:22;32.30;34.00
44729;DHT22;30457;53.590;9.922;2023-06-24T17:15:48;32.30;33.80
44729;DHT22;30457;53.590;9.922;2023-06-24T17:20:14;32.20;33.80
44729;DHT22;30457;53.590;9.922;2023-06-24T17:24:39;32.20;34.30
44729;DHT22;30457;53.590;9.922;2023-06-24T17:29:05;32.10;34.20
44729;DHT22;30457;53.590;9.922;2023-06-24T17:33:31;32.10;33.90
44729;DHT22;30457;53.590;9.922;2023-06-24T17:37:57;32.00;34.10
44729;DHT22;30457;53.590;9.922;2023-06-24T17:42:23;31.90;34.50
44729;DHT22;30457;53.590;9.922;2023-06-24T17:46:48;31.90;33.90
44729;DHT22;30457;53.590;9.922;2023-06-24T17:51:14;31.80;33.90
44729;DHT22;30457;53.590;9.922;2023-06-24T17:55:40;31.70;34.10
44729;DHT22;30457;53.590;9.922;2023-06-24T18:00:06;31.70;34.20
44729;DHT22;30457;53.590;9.922;2023-06-24T18:04:32;31.60;33.90
44729;DHT22;30457;53.590;9.922;2023-06-24T18:08:58;31.50;34.00
44729;DHT22;30457;53.590;9.922;2023-06-24T18:13:23;31.50;34.50
44729;DHT22;30457;53.590;9.922;2023-06-24T18:17:49;31.30;34.40
44729;DHT22;30457;53.590;9.922;2023-06-24T18:22:15;31.20;33.60
44729;DHT22;30457;53.590;9.922;2023-06-24T18:26:40;31.10;34.00
44729;DHT22;30457;53.590;9.922;2023-06-24T18:31:06;31.00;33.90
44729;DHT22;30457;53.590;9.922;2023-06-24T18:35:31;30.90;33.90
44729;DHT22;30457;53.590;9.922;2023-06-24T18:39:59;30.80;33.70
44729;DHT22;30457;53.590;9.922;2023-06-24T18:44:25;30.70;34.20
44729;DHT22;30457;53.590;9.922;2023-06-24T18:48:50;30.60;33.90
44729;DHT22;30457;53.590;9.922;2023-06-24T18:53:16;30.50;34.40
44729;DHT22;30457;53.590;9.922;2023-06-24T18:57:42;30.40;34.60
44729;DHT22;30457;53.590;9.922;2023-06-24T19:02:07;30.40;35.20
44729;DHT22;30457;53.590;9.922;2023-06-24T19:06:33;30.30;35.20
44729;DHT22;30457;53.590;9.922;2023-06-24T19:10:58;30.30;35.10
44729;DHT22;30457;53.590;9.922;2023-06-24T19:15:24;30.10;35.10
44729;DHT22;30457;53.590;9.922;2023-06-24T19:19:49;30.10;35.20
44729;DHT22;30457;53.590;9.922;2023-06-24T19:24:15;30.00;34.80
44729;DHT22;30457;53.590;9.922;2023-06-24T19:28:42;29.90;35.20
44729;DHT22;30457;53.590;9.922;2023-06-24T19:33:07;29.80;35.80
44729;DHT22;30457;53.590;9.922;2023-06-24T19:37:33;29.70;35.60
44729;DHT22;30457;53.590;9.922;2023-06-24T19:41:59;29.70;35.80
44729;DHT22;30457;53.590;9.922;2023-06-24T19:46:25;29.60;36.50
44729;DHT22;30457;53.590;9.922;2023-06-24T19:50:50;29.50;36.90
44729;DHT22;30457;53.590;9.922;2023-06-24T19:55:16;29.50;37.10
44729;DHT22;30457;53.590;9.922;2023-06-24T19:59:42;29.40;36.80
44729;DHT22;30457;53.590;9.922;2023-06-24T20:04:07;29.30;37.20
44729;DHT22;30457;53.590;9.922;2023-06-24T20:08:33;29.30;37.60
44729;DHT22;30457;53.590;9.922;2023-06-24T20:12:59;29.20;37.70
44729;DHT22;30457;53.590;9.922;2023-06-24T20:17:24;29.10;38.20
44729;DHT22;30457;53.590;9.922;2023-06-24T20:21:50;29.10;38.40
44729;DHT22;30457;53.590;9.922;2023-06-24T20:26:16;29.00;38.90
44729;DHT22;30457;53.590;9.922;2023-06-24T20:30:42;29.00;39.80
44729;DHT22;30457;53.590;9.922;2023-06-24T20:35:08;28.90;39.90
44729;DHT22;30457;53.590;9.922;2023-06-24T20:39:34;28.90;39.60
44729;DHT22;30457;53.590;9.922;2023-06-24T20:44:00;28.80;40.20
44729;DHT22;30457;53.590;9.922;2023-06-24T20:48:25;28.70;40.20
44729;DHT22;30457;53.590;9.922;2023-06-24T20:52:51;28.60;40.20
44729;DHT22;30457;53.590;9.922;2023-06-24T20:57:17;28.50;40.30
44729;DHT22;30457;53.590;9.922;2023-06-24T21:01:42;28.50;40.50
44729;DHT22;30457;53.590;9.922;2023-06-24T21:06:08;28.40;40.60
44729;DHT22;30457;53.590;9.922;2023-06-24T21:10:34;28.30;41.00
44729;DHT22;30457;53.590;9.922;2023-06-24T21:14:59;28.20;41.10
44729;DHT22;30457;53.590;9.922;2023-06-24T21:19:25;28.10;41.20
44729;DHT22;30457;53.590;9.922;2023-06-24T21:23:51;28.10;41.20
44729;DHT22;30457;53.590;9.922;2023-06-24T21:28:17;27.90;41.20
44729;DHT22;30457;53.590;9.922;2023-06-24T21:32:42;27.90;41.70
44729;DHT22;30457;53.590;9.922;2023-06-24T21:37:08;27.80;41.80
44729;DHT22;30457;53.590;9.922;2023-06-24T21:41:34;27.70;41.60
44729;DHT22;30457;53.590;9.922;2023-06-24T21:45:59;27.60;41.50
44729;DHT22;30457;53.590;9.922;2023-06-24T21:50:25;27.50;41.50
44729;DHT22;30457;53.590;9.922;2023-06-24T21:54:50;27.40;41.50
44729;DHT22;30457;53.590;9.922;2023-06-24T21:59:16;27.30;42.00
44729;DHT22;30457;53.590;9.922;2023-06-24T22:03:41;27.20;42.10
44729;DHT22;30457;53.590;9.922;2023-06-24T22:08:07;27.20;42.20
44729;DHT22;30457;53.590;9.922;2023-06-24T22:12:33;27.00;42.20
44729;DHT22;30457;53.590;9.922;2023-06-24T22:16:59;26.90;42.20
44729;DHT22;30457;53.590;9.922;2023-06-24T22:21:24;26.90;42.60
44729;DHT22;30457;53.590;9.922;2023-06-24T22:25:50;26.80;42.70
44729;DHT22;30457;53.590;9.922;2023-06-24T22:30:15;26.70;43.10
44729;DHT22;30457;53.590;9.922;2023-06-24T22:34:41;26.60;43.10
44729;DHT22;30457;53.590;9.922;2023-06-24T22:39:07;26.50;43.30
44729;DHT22;30457;53.590;9.922;2023-06-24T22:43:32;26.50;43.30
44729;DHT22;30457;53.590;9.922;2023-06-24T22:47:58;26.40;43.80
44729;DHT22;30457;53.590;9.922;2023-06-24T22:52:24;26.30;43.80
44729;DHT22;30457;53.590;9.922;2023-06-24T22:56:50;26.20;44.10
44729;DHT22;30457;53.590;9.922;2023-06-24T23:01:16;26.10;44.10
44729;DHT22;30457;53.590;9.922;2023-06-24T23:05:41;26.00;44.10
44729;DHT22;30457;53.590;9.922;2023-06-24T23:10:08;25.90;44.40
44729;DHT22;30457;53.590;9.922;2023-06-24T23:14:35;25.80;44.30
44729;DHT22;30457;53.590;9.922;2023-06-24T23:19:01;25.70;44.80
44729;DHT22;30457;53.590;9.922;2023-06-24T23:23:27;25.70;45.10
44729;DHT22;30457;53.590;9.922;2023-06-24T23:27:55;25.60;45.20
44729;DHT22;30457;53.590;9.922;2023-06-24T23:32:24;25.50;45.40
44729;DHT22;30457;53.590;9.922;2023-06-24T23:36:49;25.40;45.20
44729;DHT22;30457;53.590;9.922;2023-06-24T23:41:15;25.40;45.50
44729;DHT22;30457;53.590;9.922;2023-06-24T23:45:42;25.30;45.60
44729;DHT22;30457;53.590;9.922;2023-06-24T23:50:12;25.20;45.70
44729;DHT22;30457;53.590;9.922;2023-06-24T23:54:38;25.20;45.70
44729;DHT22;30457;53.590;9.922;2023-06-24T23:59:03;25.10;45.80
